Terminal Aerodrome Forecast
Issued by NWS Chicago, IL

Home | Current Version | Previous Version | Text Only | Print | Product List | Glossary On
Versions: 1 2 3 4 5 6 7 8 9 10 11 12 13 14 15 16 17 18 19 20 21 22 23
078
FTUS43 KLOT 062053 AAA
TAFRFD
TAF AMD
KRFD 062053Z 0621/0718 27011G18KT P6SM FEW150
     FM070100 24010KT P6SM FEW100
     FM070500 25009KT P6SM SCT200 WS020/28040KT
     FM071100 28010G17KT P6SM VCTS SCT050CB BKN120
     FM071600 02010KT P6SM BKN050=

USA.gov is the U.S. government's official web portal to all federal, state and local government web resources and services.